Time;durP1;ratioP1;P1;durP2;ratioP2;P2;SDS_P1;SDS_P2;PMS_P1;PMS_P2;Temp;Humidity;BMP_temperature;BMP_pressure;BME280_temperature;BME280_humidity;BME280_pressure;Samples;Min_cycle;Max_cycle;Signal;HPM_P1;HPM_P2
2022/10/29 00:01:28;;;;;;;0.00;0.00;;;;;;;16.10;95.95;100931.50;5031160;28;20182;-87
2022/10/29 00:03:53;;;;;;;0.07;0.07;;;;;;;15.94;96.87;100923.03;5030754;28;20635;-83
2022/10/29 00:06:18;;;;;;;3.20;3.00;;;;;;;15.81;98.46;100932.34;5031296;28;20176;-88
2022/10/29 00:08:44;;;;;;;0.50;0.50;;;;;;;15.69;99.38;100940.53;5031446;28;20207;-84
2022/10/29 00:11:11;;;;;;;0.20;0.20;;;;;;;15.59;100.00;100940.88;5031049;28;20561;-85
2022/10/29 00:13:37;;;;;;;4.67;4.20;;;;;;;15.55;100.00;100948.19;5013149;28;20623;-89
2022/10/29 00:16:08;;;;;;;0.50;0.50;;;;;;;15.52;100.00;100941.41;5030751;28;20184;-85
2022/10/29 00:18:34;;;;;;;2.03;1.97;;;;;;;15.52;100.00;100940.59;5031210;28;20239;-87
2022/10/29 00:21:04;;;;;;;0.27;0.27;;;;;;;15.54;100.00;100941.06;5031043;28;20266;-88
2022/10/29 00:23:30;;;;;;;2.20;1.13;;;;;;;15.55;100.00;100946.25;5013115;28;20215;-88
2022/10/29 00:25:58;;;;;;;0.00;0.00;;;;;;;15.59;100.00;100944.47;5030975;28;20186;-85
2022/10/29 00:28:24;;;;;;;0.00;0.00;;;;;;;15.64;100.00;100951.75;5030696;28;20207;-85
2022/10/29 00:30:50;;;;;;;0.37;0.37;;;;;;;15.73;100.00;100953.28;5013305;28;20210;-87
2022/10/29 00:33:17;;;;;;;0.00;0.00;;;;;;;15.81;100.00;100943.38;5030753;28;20180;-89
2022/10/29 00:35:52;;;;;;;0.87;0.60;;;;;;;15.91;100.00;100937.47;5030804;28;20171;-88
2022/10/29 00:38:18;;;;;;;0.20;0.20;;;;;;;15.96;100.00;100940.03;5030780;28;20171;-86
2022/10/29 00:40:43;;;;;;;2.63;2.43;;;;;;;16.06;100.00;100945.16;5030821;28;20546;-88
2022/10/29 00:43:13;;;;;;;0.60;0.60;;;;;;;16.12;99.36;100942.97;5030306;28;20176;-88
2022/10/29 00:45:45;;;;;;;5.23;0.97;;;;;;;16.22;98.51;100945.34;5030459;28;20245;-89
2022/10/29 00:48:11;;;;;;;2.43;2.33;;;;;;;16.27;97.69;100952.59;5030630;28;20207;-87
2022/10/29 00:50:36;;;;;;;0.77;0.77;;;;;;;16.32;96.54;100960.66;5030924;28;20183;-88
2022/10/29 00:53:02;;;;;;;0.20;0.17;;;;;;;16.35;96.18;100957.25;5030409;28;20643;-89
2022/10/29 00:55:27;;;;;;;2.57;2.47;;;;;;;16.39;95.47;100957.38;5029075;28;20270;-86
2022/10/29 00:57:54;;;;;;;0.63;0.63;;;;;;;16.33;95.32;100957.56;5030763;28;20180;-83
2022/10/29 01:00:20;;;;;;;0.00;0.00;;;;;;;16.24;95.41;100950.53;5030583;28;20179;-84
2022/10/29 01:02:45;;;;;;;5.00;0.40;;;;;;;16.16;95.94;100949.44;5030347;28;20184;-87
2022/10/29 01:05:14;;;;;;;0.77;0.77;;;;;;;16.14;96.34;100967.47;5031490;28;20238;-85
2022/10/29 01:07:40;;;;;;;0.00;0.00;;;;;;;16.17;96.37;100958.50;5034579;28;20203;-87
2022/10/29 01:10:05;;;;;;;0.00;0.00;;;;;;;16.13;96.38;100960.34;5034683;28;20516;-89
2022/10/29 01:13:00;;;;;;;0.00;0.00;;;;;;;16.06;96.51;100964.44;5034490;28;20245;-88
2022/10/29 01:15:49;;;;;;;0.00;0.00;;;;;;;16.01;96.84;100956.34;5016547;28;20180;-89
2022/10/29 01:18:22;;;;;;;0.33;0.33;;;;;;;15.99;96.85;100961.41;5034537;28;20265;-86
2022/10/29 01:21:05;;;;;;;0.00;0.00;;;;;;;15.90;97.20;100963.41;5034352;28;20186;-90
2022/10/29 01:23:57;;;;;;;0.10;0.10;;;;;;;15.73;98.09;100958.00;5034071;28;20538;-88
2022/10/29 01:27:01;;;;;;;0.00;0.00;;;;;;;15.57;99.48;100960.50;5016697;28;20186;-84
2022/10/29 01:29:39;;;;;;;0.83;0.83;;;;;;;15.48;100.00;100948.72;5034224;28;20206;-86
2022/10/29 01:32:11;;;;;;;0.67;0.67;;;;;;;15.49;100.00;100944.84;5034128;28;20274;-88
2022/10/29 01:35:03;;;;;;;0.00;0.00;;;;;;;15.48;100.00;100944.03;5033695;28;20181;-87
2022/10/29 01:37:39;;;;;;;0.50;0.50;;;;;;;15.48;100.00;100941.28;5034333;28;20188;-89
2022/10/29 01:40:06;;;;;;;0.10;0.10;;;;;;;15.51;100.00;100939.81;5034058;28;20186;-88
2022/10/29 01:42:37;;;;;;;0.57;0.57;;;;;;;15.48;100.00;100943.22;5033997;28;20229;-90
2022/10/29 01:45:16;;;;;;;1.13;0.77;;;;;;;15.41;100.00;100951.19;5015075;28;20184;-87
2022/10/29 01:47:54;;;;;;;0.67;0.67;;;;;;;15.33;100.00;100952.81;5032597;28;20287;-86
2022/10/29 01:50:22;;;;;;;2.37;0.80;;;;;;;15.34;100.00;100951.72;5032683;28;20263;-83
2022/10/29 01:52:49;;;;;;;0.00;0.00;;;;;;;15.38;100.00;100949.09;5032795;28;20184;-84
2022/10/29 01:55:18;;;;;;;0.00;0.00;;;;;;;15.41;100.00;100956.69;5032495;28;20266;-86
2022/10/29 01:57:43;;;;;;;0.00;0.00;;;;;;;15.36;100.00;100956.88;5014653;28;20188;-85
2022/10/29 02:00:17;;;;;;;0.00;0.00;;;;;;;15.33;100.00;100963.84;5032712;28;20693;-86
2022/10/29 02:02:51;;;;;;;0.00;0.00;;;;;;;15.28;100.00;100964.03;5032356;28;20176;-88
2022/10/29 02:05:27;;;;;;;0.00;0.00;;;;;;;15.32;100.00;100978.75;5032413;28;20703;-88
2022/10/29 02:08:10;;;;;;;0.00;0.00;;;;;;;15.33;100.00;100963.03;5032570;28;20269;-91
2022/10/29 02:10:43;;;;;;;1.47;1.37;;;;;;;15.40;100.00;100961.38;5032380;28;20172;-89
2022/10/29 02:13:13;;;;;;;0.00;0.00;;;;;;;15.47;100.00;100969.94;5032018;28;20668;-88
2022/10/29 02:15:47;;;;;;;0.30;0.30;;;;;;;15.47;100.00;100960.84;5032108;28;20218;-89
2022/10/29 02:18:12;;;;;;;0.00;0.00;;;;;;;15.42;100.00;100966.56;5032020;28;20183;-90
2022/10/29 02:20:43;;;;;;;2.10;2.10;;;;;;;15.43;100.00;100963.47;5032428;28;20279;-86
2022/10/29 02:23:09;;;;;;;0.00;0.00;;;;;;;15.34;100.00;100959.97;5031826;28;20696;-89
2022/10/29 02:25:34;;;;;;;0.00;0.00;;;;;;;15.13;100.00;100956.31;5032141;28;20184;-88
2022/10/29 02:27:59;;;;;;;0.00;0.00;;;;;;;15.22;100.00;100964.56;5032207;28;20589;-86
2022/10/29 02:30:25;;;;;;;0.37;0.37;;;;;;;15.35;100.00;100964.34;5032454;28;20642;-88
2022/10/29 02:32:50;;;;;;;0.00;0.00;;;;;;;15.39;100.00;100969.97;5031779;28;20182;-88
2022/10/29 02:35:15;;;;;;;0.00;0.00;;;;;;;15.41;100.00;100974.00;5014204;28;20218;-90
2022/10/29 02:37:41;;;;;;;0.00;0.00;;;;;;;15.39;100.00;100976.28;5032201;28;20196;-87
2022/10/29 02:40:07;;;;;;;0.00;0.00;;;;;;;15.33;100.00;100961.09;5031820;28;20180;-87
2022/10/29 02:42:32;;;;;;;0.00;0.00;;;;;;;15.15;100.00;100949.34;5013761;28;20191;-85
2022/10/29 02:44:58;;;;;;;28.10;4.03;;;;;;;15.28;100.00;100942.00;4991547;28;1173097;-90
2022/10/29 02:47:23;;;;;;;0.00;0.00;;;;;;;15.36;100.00;100946.69;5033200;28;20206;-87
2022/10/29 02:49:48;;;;;;;2.37;2.13;;;;;;;15.35;100.00;100945.06;5032929;28;20176;-89
2022/10/29 02:52:14;;;;;;;0.00;0.00;;;;;;;15.29;100.00;100927.09;5032846;28;20172;-88
2022/10/29 02:54:40;;;;;;;0.00;0.00;;;;;;;15.21;100.00;100947.22;5032734;28;20178;-83
2022/10/29 02:57:05;;;;;;;0.83;0.83;;;;;;;15.11;100.00;100942.09;5032799;28;20195;-83
2022/10/29 02:59:30;;;;;;;0.00;0.00;;;;;;;14.87;100.00;100939.88;5014998;28;20618;-88
2022/10/29 03:01:56;;;;;;;0.00;0.00;;;;;;;14.83;100.00;100939.75;5032526;28;20625;-87
2022/10/29 03:04:21;;;;;;;0.07;0.07;;;;;;;14.82;100.00;100940.06;5032450;28;20178;-87
2022/10/29 03:06:47;;;;;;;0.47;0.47;;;;;;;14.82;100.00;100940.88;5032605;28;20317;-87
2022/10/29 03:09:12;;;;;;;2.10;2.00;;;;;;;14.87;100.00;100934.38;5032417;28;20212;-89
2022/10/29 03:11:37;;;;;;;1.27;1.27;;;;;;;14.95;100.00;100938.25;5032482;28;20642;-86
2022/10/29 03:14:02;;;;;;;0.47;0.47;;;;;;;14.98;100.00;100921.09;5032108;28;20681;-87
2022/10/29 03:16:28;;;;;;;0.50;0.50;;;;;;;15.00;100.00;100925.13;5032080;28;20259;-89
2022/10/29 03:18:53;;;;;;;0.30;0.30;;;;;;;14.98;100.00;100921.88;5032202;28;20176;-87
2022/10/29 03:21:18;;;;;;;0.00;0.00;;;;;;;14.98;100.00;100910.06;5032398;28;20176;-88
2022/10/29 03:23:43;;;;;;;0.00;0.00;;;;;;;14.97;100.00;100914.78;5032172;28;20592;-87
2022/10/29 03:26:12;;;;;;;0.20;0.20;;;;;;;14.96;100.00;100917.84;5032301;28;20172;-84
2022/10/29 03:28:37;;;;;;;0.00;0.00;;;;;;;14.92;100.00;100906.72;5031171;28;20218;-87
2022/10/29 03:31:03;;;;;;;0.00;0.00;;;;;;;14.85;100.00;100920.16;5032323;28;20172;-87
2022/10/29 03:33:28;;;;;;;0.00;0.00;;;;;;;14.82;100.00;100907.06;5032050;28;20545;-88
2022/10/29 03:35:58;;;;;;;0.00;0.00;;;;;;;14.79;100.00;100908.53;5031898;28;20538;-89
2022/10/29 03:38:23;;;;;;;0.00;0.00;;;;;;;14.75;100.00;100906.75;5032098;28;20407;-87
2022/10/29 03:40:49;;;;;;;0.20;0.20;;;;;;;14.60;100.00;100899.81;5014457;28;20230;-90
2022/10/29 03:43:14;;;;;;;0.00;0.00;;;;;;;14.60;100.00;100910.81;5031518;28;20176;-87
2022/10/29 03:45:39;;;;;;;0.67;0.60;;;;;;;14.69;100.00;100916.31;5031648;28;20279;-88
2022/10/29 03:48:05;;;;;;;0.63;0.63;;;;;;;14.70;100.00;100909.69;5031852;28;20204;-89
2022/10/29 03:50:30;;;;;;;0.00;0.00;;;;;;;14.76;100.00;100919.38;5031906;28;20533;-87
2022/10/29 03:52:55;;;;;;;0.73;0.73;;;;;;;14.82;100.00;100927.13;5031551;28;20693;-89
2022/10/29 03:55:21;;;;;;;0.00;0.00;;;;;;;14.85;100.00;100929.22;5032025;28;20615;-90
2022/10/29 03:57:46;;;;;;;0.63;0.63;;;;;;;14.93;100.00;100929.53;5031627;28;20196;-86
2022/10/29 04:00:12;;;;;;;1.30;0.70;;;;;;;15.02;100.00;100922.03;5031859;28;20259;-87
2022/10/29 04:02:37;;;;;;;0.43;0.43;;;;;;;15.05;100.00;100926.91;5031469;28;20167;-88
2022/10/29 04:05:03;;;;;;;1.20;1.10;;;;;;;15.03;100.00;100918.94;5031510;28;20231;-85
2022/10/29 04:07:28;;;;;;;7.30;2.17;;;;;;;15.01;100.00;100921.22;5035068;28;20701;-86
2022/10/29 04:09:53;;;;;;;1.17;0.83;;;;;;;15.09;100.00;100927.84;5038840;28;20180;-90
2022/10/29 04:12:18;;;;;;;17.73;2.63;;;;;;;15.17;100.00;100932.50;5038785;28;20287;-79
2022/10/29 04:14:44;;;;;;;3.20;1.43;;;;;;;15.21;100.00;100929.91;5031077;28;20180;-89
2022/10/29 04:17:10;;;;;;;1.07;1.00;;;;;;;15.29;100.00;100938.09;5031001;28;20179;-88
2022/10/29 04:19:36;;;;;;;10.53;2.13;;;;;;;15.34;100.00;100946.22;5031229;28;20183;-88
2022/10/29 04:22:01;;;;;;;1.50;1.40;;;;;;;15.41;100.00;100943.72;5030940;28;20179;-89
2022/10/29 04:24:26;;;;;;;2.57;1.60;;;;;;;15.45;100.00;100941.91;5030688;28;20172;-88
2022/10/29 04:26:52;;;;;;;1.63;1.53;;;;;;;15.52;100.00;100941.41;5030881;28;20184;-82
2022/10/29 04:29:17;;;;;;;1.60;1.53;;;;;;;15.54;100.00;100936.38;5031030;28;20302;-86
2022/10/29 04:31:42;;;;;;;6.30;3.03;;;;;;;15.58;100.00;100934.56;5031024;28;20175;-80
2022/10/29 04:34:08;;;;;;;1.10;1.10;;;;;;;15.62;100.00;100931.97;5029298;28;20712;-82
2022/10/29 04:36:33;;;;;;;9.27;1.87;;;;;;;15.64;100.00;100929.72;5030753;28;20230;-82
2022/10/29 04:38:58;;;;;;;2.27;1.40;;;;;;;15.64;100.00;100936.03;5030700;28;20235;-83
2022/10/29 04:41:23;;;;;;;2.50;2.40;;;;;;;15.68;100.00;100938.91;5030611;28;20634;-79
2022/10/29 04:43:49;;;;;;;1.07;1.07;;;;;;;15.73;100.00;100941.47;5030396;28;20191;-80
2022/10/29 04:46:14;;;;;;;11.80;2.27;;;;;;;15.76;100.00;100949.06;5030838;28;20302;-82
2022/10/29 04:48:39;;;;;;;0.47;0.47;;;;;;;15.79;100.00;100942.91;5030723;28;20268;-79
2022/10/29 04:51:05;;;;;;;9.40;2.27;;;;;;;15.86;100.00;100932.16;5030753;28;20183;-88
2022/10/29 04:53:30;;;;;;;2.80;2.60;;;;;;;15.88;100.00;100938.13;5030356;28;20168;-82
2022/10/29 04:56:00;;;;;;;1.97;1.83;;;;;;;15.89;100.00;100930.66;5030651;28;20183;-89
2022/10/29 04:58:26;;;;;;;1.83;1.73;;;;;;;15.85;100.00;100930.53;5030722;28;20470;-86
2022/10/29 05:00:51;;;;;;;1.90;1.80;;;;;;;15.82;100.00;100928.44;5030646;28;20223;-87
2022/10/29 05:03:16;;;;;;;2.20;2.10;;;;;;;15.74;100.00;100927.34;5030235;28;20650;-80
2022/10/29 05:05:42;;;;;;;1.03;1.03;;;;;;;15.74;100.00;100921.03;5030401;28;20171;-85
2022/10/29 05:08:09;;;;;;;17.53;3.70;;;;;;;15.75;100.00;100934.47;5030256;28;20206;-84
2022/10/29 05:10:37;;;;;;;4.50;4.10;;;;;;;15.81;100.00;100937.06;5030468;28;20179;-85
2022/10/29 05:13:06;;;;;;;9.43;2.10;;;;;;;15.87;100.00;100935.72;5030170;28;20172;-81
2022/10/29 05:15:31;;;;;;;3.97;2.63;;;;;;;15.91;100.00;100933.88;5030264;28;20222;-87
2022/10/29 05:17:57;;;;;;;2.07;1.97;;;;;;;15.90;100.00;100929.53;5030169;28;20424;-86
2022/10/29 05:20:24;;;;;;;9.30;3.10;;;;;;;15.90;100.00;100944.09;5030523;28;20225;-80
2022/10/29 05:22:49;;;;;;;16.03;3.60;;;;;;;15.96;100.00;100940.03;5030080;28;20568;-84
2022/10/29 05:25:15;;;;;;;4.43;2.53;;;;;;;15.89;100.00;100934.22;5030113;28;20168;-78
2022/10/29 05:27:40;;;;;;;1.70;1.60;;;;;;;15.84;100.00;100939.13;5030352;28;20223;-81
2022/10/29 05:30:06;;;;;;;3.60;3.10;;;;;;;15.83;100.00;100935.56;5030279;28;20222;-80
2022/10/29 05:32:32;;;;;;;13.27;2.83;;;;;;;15.82;100.00;100933.97;5030088;28;20168;-81
2022/10/29 05:34:57;;;;;;;9.33;2.27;;;;;;;15.76;100.00;100933.34;5030129;28;20172;-85
2022/10/29 05:37:24;;;;;;;3.57;2.30;;;;;;;15.72;100.00;100924.13;5030351;28;20680;-79
2022/10/29 05:39:50;;;;;;;7.93;2.50;;;;;;;15.74;100.00;100941.13;5030384;28;20199;-85
2022/10/29 05:42:15;;;;;;;1.57;1.47;;;;;;;15.75;100.00;100945.50;5030349;28;20199;-87
2022/10/29 05:44:40;;;;;;;2.23;1.83;;;;;;;15.78;100.00;100946.81;5031061;28;20184;-86
2022/10/29 05:47:06;;;;;;;2.50;1.37;;;;;;;15.80;100.00;100946.47;5030245;28;20172;-88
2022/10/29 05:49:31;;;;;;;3.10;1.83;;;;;;;15.79;100.00;100945.66;5030253;28;20168;-88
2022/10/29 05:51:56;;;;;;;4.60;1.77;;;;;;;15.80;100.00;100949.22;5032450;28;20207;-86
2022/10/29 05:54:22;;;;;;;2.70;2.50;;;;;;;15.84;100.00;100939.13;5033341;28;20175;-89
2022/10/29 05:56:47;;;;;;;15.60;3.63;;;;;;;15.82;100.00;100941.44;5033775;28;20250;-86
2022/10/29 05:59:12;;;;;;;2.63;2.43;;;;;;;15.82;100.00;100947.75;5033696;28;20191;-88
2022/10/29 06:01:38;;;;;;;6.57;2.80;;;;;;;15.78;100.00;100933.03;5033631;28;20601;-82
2022/10/29 06:04:03;;;;;;;4.87;2.20;;;;;;;15.74;100.00;100943.88;5033577;28;20200;-84
2022/10/29 06:06:29;;;;;;;2.53;1.70;;;;;;;15.73;100.00;100955.25;5033570;28;20551;-89
2022/10/29 06:08:55;;;;;;;7.87;3.70;;;;;;;15.71;100.00;100958.34;5033555;28;20199;-84
2022/10/29 06:11:20;;;;;;;3.03;2.77;;;;;;;15.72;100.00;100950.88;5033995;28;20222;-89
2022/10/29 06:13:45;;;;;;;7.53;4.03;;;;;;;15.74;100.00;100952.16;5033295;28;20172;-87
2022/10/29 06:16:11;;;;;;;9.67;3.67;;;;;;;15.73;100.00;100960.75;5033238;28;20176;-86
2022/10/29 06:18:36;;;;;;;20.37;1.50;;;;;;;15.70;100.00;100964.19;5033258;28;20168;-86
2022/10/29 06:21:01;;;;;;;0.97;0.97;;;;;;;15.69;100.00;100957.06;5033557;28;20186;-87
2022/10/29 06:23:27;;;;;;;2.57;2.33;;;;;;;15.68;100.00;100963.72;5032956;28;20172;-88
2022/10/29 06:25:53;;;;;;;1.23;1.23;;;;;;;15.68;100.00;100958.19;5032957;28;20167;-87
2022/10/29 06:28:18;;;;;;;6.80;2.03;;;;;;;15.68;100.00;100949.94;5033127;28;20654;-89
2022/10/29 06:30:48;;;;;;;0.53;0.53;;;;;;;15.66;100.00;100955.78;5033027;28;20180;-89
2022/10/29 06:33:15;;;;;;;1.57;1.47;;;;;;;15.69;100.00;100957.88;5032887;28;20176;-87
2022/10/29 06:35:40;;;;;;;2.77;2.47;;;;;;;15.72;100.00;100950.88;5032911;28;20522;-87
2022/10/29 06:38:06;;;;;;;5.97;3.00;;;;;;;15.75;100.00;100950.19;5032796;28;20175;-88
2022/10/29 06:40:31;;;;;;;1.10;1.10;;;;;;;15.76;100.00;100947.13;5032916;28;20175;-85
2022/10/29 06:43:04;;;;;;;0.07;0.07;;;;;;;15.78;100.00;100949.56;5032620;28;20227;-88
2022/10/29 06:45:30;;;;;;;0.57;0.57;;;;;;;15.81;100.00;100948.88;5032652;28;20267;-85
2022/10/29 06:47:56;;;;;;;2.80;2.70;;;;;;;15.82;100.00;100958.75;5032669;28;20195;-89
2022/10/29 06:50:21;;;;;;;6.70;2.70;;;;;;;15.84;100.00;100945.47;5032777;28;20179;-87
2022/10/29 06:52:58;;;;;;;0.50;0.47;;;;;;;15.88;100.00;100959.38;5032641;28;20207;-88
2022/10/29 06:55:24;;;;;;;0.70;0.70;;;;;;;15.90;100.00;100957.06;5032486;28;20569;-84
2022/10/29 06:58:00;;;;;;;1.53;1.40;;;;;;;15.92;100.00;100952.88;5032657;28;20184;-89
2022/10/29 07:00:27;;;;;;;2.80;2.27;;;;;;;15.91;100.00;100945.75;5032654;28;20168;-86
2022/10/29 07:02:53;;;;;;;2.70;1.00;;;;;;;15.90;100.00;100946.06;5031349;28;20172;-88
2022/10/29 07:05:19;;;;;;;7.83;5.20;;;;;;;15.89;100.00;100938.94;5032285;28;20530;-85
2022/10/29 07:07:44;;;;;;;2.03;1.90;;;;;;;15.88;100.00;100942.84;5032255;28;20200;-83
2022/10/29 07:10:10;;;;;;;1.40;1.30;;;;;;;15.87;100.00;100943.97;5032124;28;20179;-89
2022/10/29 07:12:42;;;;;;;2.53;1.30;;;;;;;15.87;100.00;100949.47;5031975;28;20653;-88
2022/10/29 07:15:08;;;;;;;0.77;0.77;;;;;;;15.83;100.00;100954.88;5032088;28;20176;-88
2022/10/29 07:17:34;;;;;;;2.83;1.53;;;;;;;15.82;100.00;100949.69;5014071;28;20226;-86
2022/10/29 07:19:59;;;;;;;1.70;1.20;;;;;;;15.81;100.00;100948.88;5032055;28;20176;-90
2022/10/29 07:22:25;;;;;;;0.87;0.87;;;;;;;15.80;100.00;100961.06;5031863;28;20631;-87
2022/10/29 07:24:50;;;;;;;1.10;1.07;;;;;;;15.84;100.00;100969.44;5031708;28;20538;-89
2022/10/29 07:27:15;;;;;;;1.77;1.67;;;;;;;15.84;100.00;100963.94;5032055;28;20255;-87
2022/10/29 07:29:41;;;;;;;1.50;1.40;;;;;;;15.85;100.00;100976.56;5032381;28;20365;-88
2022/10/29 07:32:06;;;;;;;0.23;0.23;;;;;;;15.87;100.00;100969.59;5031802;28;20176;-88
2022/10/29 07:34:31;;;;;;;0.00;0.00;;;;;;;15.91;100.00;100967.78;5031551;28;20264;-89
2022/10/29 07:36:57;;;;;;;2.07;1.87;;;;;;;15.92;100.00;100965.84;5014000;28;20168;-89
2022/10/29 07:39:22;;;;;;;0.00;0.00;;;;;;;15.95;100.00;100970.69;5032180;28;20630;-86
2022/10/29 07:41:47;;;;;;;0.07;0.07;;;;;;;15.96;100.00;100970.34;5032072;28;20306;-87
2022/10/29 07:44:12;;;;;;;0.00;0.00;;;;;;;16.00;100.00;100962.19;5031320;28;20184;-87
2022/10/29 07:46:38;;;;;;;0.00;0.00;;;;;;;16.00;100.00;100960.25;5031491;28;20195;-86
2022/10/29 07:49:03;;;;;;;0.00;0.00;;;;;;;16.01;100.00;100961.06;5031520;28;20207;-89
2022/10/29 07:51:28;;;;;;;0.00;0.00;;;;;;;15.89;100.00;100955.47;5013889;28;20517;-89
2022/10/29 07:53:54;;;;;;;0.00;0.00;;;;;;;15.75;100.00;100962.03;5031474;28;20300;-90
2022/10/29 07:56:19;;;;;;;0.10;0.10;;;;;;;15.66;100.00;100960.47;5031578;28;20262;-90
2022/10/29 07:58:44;;;;;;;0.33;0.33;;;;;;;15.58;100.00;100959.34;5031858;28;20202;-88
2022/10/29 08:01:10;;;;;;;0.00;0.00;;;;;;;15.59;100.00;100968.41;5032061;28;20176;-86
2022/10/29 08:03:35;;;;;;;0.00;0.00;;;;;;;15.70;100.00;100966.94;5031256;28;20164;-90
2022/10/29 08:06:01;;;;;;;0.00;0.00;;;;;;;15.73;100.00;100958.00;5031269;28;20191;-91
2022/10/29 08:08:26;;;;;;;0.00;0.00;;;;;;;15.78;100.00;100957.81;5031489;28;20214;-88
2022/10/29 08:10:51;;;;;;;0.00;0.00;;;;;;;15.88;100.00;100962.94;5031588;28;20280;-88
2022/10/29 08:13:16;;;;;;;0.00;0.00;;;;;;;16.00;100.00;100967.72;5031545;28;20218;-89
2022/10/29 08:15:45;;;;;;;0.00;0.00;;;;;;;16.03;100.00;100956.00;5013568;28;20176;-85
2022/10/29 08:18:14;;;;;;;0.00;0.00;;;;;;;15.97;100.00;100957.38;5031225;28;20199;-87
2022/10/29 08:20:40;;;;;;;0.00;0.00;;;;;;;15.97;100.00;100954.59;5031242;28;20167;-88
2022/10/29 08:23:06;;;;;;;0.00;0.00;;;;;;;16.06;100.00;100967.19;5031196;28;20186;-89
2022/10/29 08:25:31;;;;;;;0.00;0.00;;;;;;;16.18;100.00;100963.69;5031021;28;20164;-85
2022/10/29 08:28:01;;;;;;;0.00;0.00;;;;;;;16.31;100.00;100968.13;5029961;28;20649;-89
2022/10/29 08:30:27;;;;;;;0.00;0.00;;;;;;;16.41;100.00;100977.94;5031051;28;20238;-89
2022/10/29 08:32:53;;;;;;;0.37;0.37;;;;;;;16.48;100.00;100980.94;5030824;28;20255;-84
2022/10/29 08:35:18;;;;;;;0.10;0.10;;;;;;;16.51;100.00;100977.53;5030750;28;20250;-89
2022/10/29 08:37:44;;;;;;;0.10;0.10;;;;;;;16.54;100.00;100970.53;5013059;28;20176;-88
2022/10/29 08:40:33;;;;;;;0.00;0.00;;;;;;;16.56;100.00;100966.28;5030734;28;20172;-88
2022/10/29 08:43:11;;;;;;;0.00;0.00;;;;;;;16.61;100.00;100965.25;5030537;28;20171;-86
2022/10/29 08:45:48;;;;;;;0.00;0.00;;;;;;;16.63;100.00;100961.00;5030760;28;20204;-86
2022/10/29 08:48:34;;;;;;;0.00;0.00;;;;;;;16.68;100.00;100964.75;5030676;28;20195;-88
2022/10/29 08:51:08;;;;;;;0.00;0.00;;;;;;;16.66;100.00;100956.78;5030698;28;20655;-89
2022/10/29 08:53:37;;;;;;;0.00;0.00;;;;;;;16.71;100.00;100944.75;5030205;28;20168;-89
2022/10/29 08:56:05;;;;;;;0.00;0.00;;;;;;;16.69;100.00;100939.56;5030882;28;20180;-86
2022/10/29 08:58:40;;;;;;;0.00;0.00;;;;;;;16.75;100.00;100942.91;5030796;28;20172;-86
2022/10/29 09:01:10;;;;;;;0.00;0.00;;;;;;;16.83;100.00;100931.78;5030715;28;20171;-88
2022/10/29 09:03:36;;;;;;;0.00;0.00;;;;;;;16.93;100.00;100923.09;5012542;28;20642;-84
2022/10/29 09:06:13;;;;;;;0.00;0.00;;;;;;;17.04;100.00;100928.16;5030717;28;20211;-87
2022/10/29 09:08:59;;;;;;;0.00;0.00;;;;;;;17.12;99.59;100933.56;5030654;28;20223;-86
2022/10/29 09:11:41;;;;;;;0.00;0.00;;;;;;;17.27;97.89;100934.03;5030431;28;20635;-86
2022/10/29 09:14:30;;;;;;;0.00;0.00;;;;;;;17.39;96.38;100937.63;5030124;28;20172;-89
2022/10/29 09:17:02;;;;;;;0.00;0.00;;;;;;;17.45;95.68;100933.47;5030041;28;20195;-87
2022/10/29 09:19:57;;;;;;;0.00;0.00;;;;;;;17.49;95.64;100936.34;5030293;28;20306;-89
2022/10/29 09:22:33;;;;;;;10.67;9.83;;;;;;;17.46;96.44;100937.84;5005606;28;20192;-87
2022/10/29 09:25:13;;;;;;;0.00;0.00;;;;;;;17.53;97.29;100934.50;5030354;28;20178;-83
2022/10/29 09:27:57;;;;;;;0.00;0.00;;;;;;;17.61;97.72;100939.09;5033695;28;20191;-88
2022/10/29 09:30:22;;;;;;;0.00;0.00;;;;;;;17.62;96.91;100935.19;5034170;28;20175;-84
2022/10/29 09:33:07;;;;;;;0.00;0.00;;;;;;;17.57;96.97;100949.25;5033865;28;20238;-89
2022/10/29 09:35:39;;;;;;;0.00;0.00;;;;;;;17.56;97.03;100961.44;5034088;28;20188;-86
2022/10/29 09:38:16;;;;;;;0.23;0.23;;;;;;;17.71;96.16;100960.78;5034343;28;20184;-88
2022/10/29 09:40:42;;;;;;;0.10;0.10;;;;;;;17.77;94.08;100959.38;5016111;28;20203;-86
2022/10/29 09:43:30;;;;;;;0.00;0.00;;;;;;;17.82;93.71;100958.34;5033581;28;20230;-88
2022/10/29 09:46:20;;;;;;;0.00;0.00;;;;;;;17.87;92.78;100951.78;5033733;28;20675;-90
2022/10/29 09:48:55;;;;;;;0.00;0.00;;;;;;;17.93;92.40;100944.84;5033692;28;20196;-87
2022/10/29 09:51:41;;;;;;;0.00;0.00;;;;;;;17.90;92.83;100927.00;5033709;28;20225;-86
2022/10/29 09:54:06;;;;;;;0.00;0.00;;;;;;;17.93;93.56;100923.53;5033437;28;20172;-87
2022/10/29 09:56:32;;;;;;;0.43;0.43;;;;;;;18.04;91.33;100921.88;5033701;28;20199;-87
2022/10/29 09:59:22;;;;;;;1.40;1.40;;;;;;;18.16;89.99;100928.53;5033837;28;20820;-87
2022/10/29 10:01:48;;;;;;;0.50;0.50;;;;;;;18.19;89.77;100931.41;5033548;28;20184;-88
2022/10/29 10:04:23;;;;;;;0.47;0.47;;;;;;;18.26;89.67;100937.16;5033164;28;20657;-88
2022/10/29 10:07:05;;;;;;;1.27;1.27;;;;;;;18.24;91.37;100935.91;5033339;28;20171;-85
2022/10/29 10:09:53;;;;;;;0.00;0.00;;;;;;;18.06;92.59;100932.59;5033320;28;20727;-87
2022/10/29 10:12:25;;;;;;;0.30;0.30;;;;;;;18.14;91.81;100926.13;5033337;28;20648;-86
2022/10/29 10:15:06;;;;;;;0.00;0.00;;;;;;;18.18;89.89;100927.03;5033432;28;20259;-88
2022/10/29 10:17:59;;;;;;;1.37;1.30;;;;;;;18.25;89.17;100923.69;5033089;28;20537;-89
2022/10/29 10:20:45;;;;;;;0.00;0.00;;;;;;;18.23;88.55;100914.94;5033218;28;20272;-86
2022/10/29 10:23:29;;;;;;;0.10;0.10;;;;;;;18.25;88.34;100923.69;5032957;28;20194;-83
2022/10/29 10:25:56;;;;;;;0.00;0.00;;;;;;;18.27;86.78;100922.16;5033186;28;20183;-86
2022/10/29 10:28:23;;;;;;;1.37;1.37;;;;;;;18.23;87.34;100918.50;5033142;28;20207;-87
2022/10/29 10:31:03;;;;;;;1.57;1.40;;;;;;;18.19;86.39;100909.28;5033279;28;20191;-87
2022/10/29 10:33:30;;;;;;;3.50;1.70;;;;;;;18.22;86.27;100908.56;5032863;28;20194;-87
2022/10/29 10:36:00;;;;;;;6.07;5.50;;;;;;;18.16;85.70;100901.69;5032932;28;20180;-88
2022/10/29 10:38:26;;;;;;;0.00;0.00;;;;;;;18.13;86.13;100905.16;5032702;28;20184;-83
2022/10/29 10:40:59;;;;;;;0.83;0.83;;;;;;;18.17;87.30;100903.28;5032631;28;20556;-87
2022/10/29 10:43:25;;;;;;;0.50;0.50;;;;;;;18.21;86.15;100895.91;5032458;28;20210;-85
2022/10/29 10:45:59;;;;;;;0.27;0.27;;;;;;;18.24;85.51;100892.44;5032458;28;20227;-86
2022/10/29 10:48:27;;;;;;;0.30;0.30;;;;;;;18.28;85.05;100893.34;5014809;28;20701;-86
2022/10/29 10:51:18;;;;;;;0.00;0.00;;;;;;;18.28;85.01;100879.50;5032771;28;20681;-86
2022/10/29 10:53:43;;;;;;;0.73;0.30;;;;;;;18.16;86.04;100865.72;5032624;28;20224;-87
2022/10/29 10:56:17;;;;;;;0.00;0.00;;;;;;;18.12;86.66;100868.41;5032805;28;20173;-84
2022/10/29 10:58:53;;;;;;;0.00;0.00;;;;;;;18.22;86.37;100867.06;5032724;28;20218;-88
2022/10/29 11:01:25;;;;;;;5.30;1.33;;;;;;;18.18;85.21;100859.84;5032326;28;20229;-88
2022/10/29 11:04:19;;;;;;;0.00;0.00;;;;;;;18.29;84.87;100845.16;5031941;28;20183;-85
2022/10/29 11:06:50;;;;;;;0.00;0.00;;;;;;;18.36;83.97;100847.31;5032504;28;20176;-86
2022/10/29 11:09:32;;;;;;;0.00;0.00;;;;;;;18.44;83.97;100851.88;5032242;28;20199;-87
2022/10/29 11:12:44;;;;;;;0.00;0.00;;;;;;;18.60;85.30;100849.13;5032231;28;20193;-86
2022/10/29 11:15:24;;;;;;;0.10;0.10;;;;;;;18.61;85.07;100842.44;4970754;28;20197;-80
2022/10/29 11:17:54;;;;;;;0.20;0.20;;;;;;;18.57;85.50;100847.88;5029951;28;20253;-83
2022/10/29 11:20:26;;;;;;;0.00;0.00;;;;;;;18.59;86.25;100850.28;5032054;28;20230;-87
2022/10/29 11:23:18;;;;;;;0.00;0.00;;;;;;;18.52;84.56;100847.34;5014094;28;20585;-85
2022/10/29 11:25:55;;;;;;;0.00;0.00;;;;;;;18.66;84.71;100844.97;5031910;28;20168;-87
2022/10/29 11:28:37;;;;;;;0.00;0.00;;;;;;;18.74;84.41;100846.75;5030570;28;20203;-87
2022/10/29 11:31:19;;;;;;;0.00;0.00;;;;;;;18.74;84.30;100838.47;5031904;28;20535;-84